Time;durP1;ratioP1;P1;durP2;ratioP2;P2;SDS_P1;SDS_P2;PMS_P1;PMS_P2;Temp;Humidity;BMP_temperature;BMP_pressure;BME280_temperature;BME280_humidity;BME280_pressure;Samples;Min_cycle;Max_cycle;Signal;HPM_P1;HPM_P2
2023/06/15 00:00:31;;;;;;;;;;;;;;;;;;137455;1274;22511;-79
2023/06/15 00:03:54;;;;;;;;;;;;;;;;;;137482;1274;23163;-79
2023/06/15 00:06:59;;;;;;;;;;;;;;;;;;137472;1273;22409;-80
2023/06/15 00:10:02;;;;;;;;;;;;;;;;;;137482;1274;22391;-80
2023/06/15 00:13:04;;;;;;;;;;;;;;;;;;137479;1274;22552;-80
2023/06/15 00:16:07;;;;;;;;;;;;;;;;;;137459;1274;22324;-80
2023/06/15 00:19:09;;;;;;;;;;;;;;;;;;137461;1274;22503;-80
2023/06/15 00:22:14;;;;;;;;;;;;;;;;;;137490;1274;22901;-80
2023/06/15 00:25:17;;;;;;;;;;;;;;;;;;137498;1274;23092;-80
2023/06/15 00:28:19;;;;;;;;;;;;;;;;;;137417;1274;22817;-80
2023/06/15 00:31:22;;;;;;;;;;;;;;;;;;137526;1269;22303;-80
2023/06/15 00:34:24;;;;;;;;;;;;;;;;;;137525;1274;22432;-80
2023/06/15 00:37:27;;;;;;;;;;;;;;;;;;137495;1274;22680;-81
2023/06/15 00:40:29;;;;;;;;;;;;;;;;;;137463;1274;22544;-80
2023/06/15 00:43:32;;;;;;;;;;;;;;;;;;137473;1274;22396;-81
2023/06/15 00:46:34;;;;;;;;;;;;;;;;;;137447;1274;22959;-81
2023/06/15 00:49:37;;;;;;;;;;;;;;;;;;137460;1274;22351;-83
2023/06/15 00:52:39;;;;;;;;;;;;;;;;;;137502;1274;22575;-82
2023/06/15 00:55:42;;;;;;;;;;;;;;;;;;137483;1274;22345;-82
2023/06/15 00:58:44;;;;;;;;;;;;;;;;;;137472;1274;22409;-80
2023/06/15 01:01:47;;;;;;;;;;;;;;;;;;137521;1274;22321;-81
2023/06/15 01:04:50;;;;;;;;;;;;;;;;;;137430;1274;22623;-83
2023/06/15 01:07:52;;;;;;;;;;;;;;;;;;137490;1274;22337;-83
2023/06/15 01:10:56;;;;;;;;;;;;;;;;;;137426;1274;22581;-83
2023/06/15 01:13:58;;;;;;;;;;;;;;;;;;137489;1274;22505;-83
2023/06/15 01:17:01;;;;;;;;;;;;;;;;;;137493;1274;22536;-81
2023/06/15 01:20:05;;;;;;;;;;;;;;;;;;137427;1273;22529;-80
2023/06/15 01:23:10;;;;;;;;;;;;;;;;;;137528;1274;22497;-81
2023/06/15 01:26:13;;;;;;;;;;;;;;;;;;137453;1274;22515;-80
2023/06/15 01:29:15;;;;;;;;;;;;;;;;;;137511;1274;22664;-80
2023/06/15 01:32:18;;;;;;;;;;;;;;;;;;137506;1274;22549;-81
2023/06/15 01:35:20;;;;;;;;;;;;;;;;;;137432;1274;22602;-81
2023/06/15 01:38:23;;;;;;;;;;;;;;;;;;137398;1275;22552;-80
2023/06/15 01:41:25;;;;;;;;;;;;;;;;;;137414;1274;22503;-81
2023/06/15 01:44:27;;;;;;;;;;;;;;;;;;137379;1274;22541;-81
2023/06/15 01:47:31;;;;;;;;;;;;;;;;;;137516;1274;22417;-81
2023/06/15 01:50:34;;;;;;;;;;;;;;;;;;137389;1274;22505;-81
2023/06/15 01:53:36;;;;;;;;;;;;;;;;;;137428;1274;22549;-81
2023/06/15 01:56:39;;;;;;;;;;;;;;;;;;137377;1274;22589;-81
2023/06/15 01:59:41;;;;;;;;;;;;;;;;;;137391;1274;22495;-81
2023/06/15 02:02:44;;;;;;;;;;;;;;;;;;137424;1274;22477;-81
2023/06/15 02:05:46;;;;;;;;;;;;;;;;;;137434;1274;22569;-84
2023/06/15 02:08:49;;;;;;;;;;;;;;;;;;137466;1274;22543;-81
2023/06/15 02:11:51;;;;;;;;;;;;;;;;;;137460;1274;22526;-81
2023/06/15 02:14:54;;;;;;;;;;;;;;;;;;137514;1274;22349;-81
2023/06/15 02:18:00;;;;;;;;;;;;;;;;;;137497;1274;22509;-81
2023/06/15 02:21:03;;;;;;;;;;;;;;;;;;137465;1274;22528;-81
2023/06/15 02:24:05;;;;;;;;;;;;;;;;;;137505;1274;22557;-81
2023/06/15 02:27:08;;;;;;;;;;;;;;;;;;137486;1274;22926;-81
2023/06/15 02:30:11;;;;;;;;;;;;;;;;;;137522;1274;22290;-80
2023/06/15 02:33:13;;;;;;;;;;;;;;;;;;137303;1274;187733;-83
2023/06/15 02:36:19;;;;;;;;;;;;;;;;;;137393;1274;22496;-80
2023/06/15 02:39:21;;;;;;;;;;;;;;;;;;137482;1274;22535;-80
2023/06/15 02:42:24;;;;;;;;;;;;;;;;;;137378;1274;22523;-80
2023/06/15 02:45:26;;;;;;;;;;;;;;;;;;137311;1275;22522;-79
2023/06/15 02:48:29;;;;;;;;;;;;;;;;;;137570;1274;22661;-82
2023/06/15 02:51:32;;;;;;;;;;;;;;;;;;137424;1274;22523;-80
2023/06/15 02:54:36;;;;;;;;;;;;;;;;;;137413;1274;22545;-79
2023/06/15 02:57:47;;;;;;;;;;;;;;;;;;137460;1274;22490;-81
2023/06/15 03:00:51;;;;;;;;;;;;;;;;;;137476;1274;22474;-82
2023/06/15 03:03:57;;;;;;;;;;;;;;;;;;137510;1274;22570;-83
2023/06/15 03:06:59;;;;;;;;;;;;;;;;;;137538;1274;22615;-79
2023/06/15 03:10:02;;;;;;;;;;;;;;;;;;137567;1274;22319;-80
2023/06/15 03:13:04;;;;;;;;;;;;;;;;;;137544;1274;22497;-80
2023/06/15 03:16:07;;;;;;;;;;;;;;;;;;137460;1274;22620;-79
2023/06/15 03:19:12;;;;;;;;;;;;;;;;;;137501;1268;22488;-81
2023/06/15 03:22:15;;;;;;;;;;;;;;;;;;137463;1274;22524;-81
2023/06/15 03:25:17;;;;;;;;;;;;;;;;;;137461;1274;22499;-80
2023/06/15 03:28:22;;;;;;;;;;;;;;;;;;137463;1274;22532;-82
2023/06/15 03:31:28;;;;;;;;;;;;;;;;;;137532;1274;22555;-81
2023/06/15 03:34:31;;;;;;;;;;;;;;;;;;137396;1274;22526;-79
2023/06/15 03:37:33;;;;;;;;;;;;;;;;;;137499;1274;22833;-79
2023/06/15 03:40:36;;;;;;;;;;;;;;;;;;137207;1274;22509;-83
2023/06/15 03:43:38;;;;;;;;;;;;;;;;;;137470;1274;22510;-82
2023/06/15 03:46:41;;;;;;;;;;;;;;;;;;137469;1273;22682;-82
2023/06/15 03:49:44;;;;;;;;;;;;;;;;;;137427;1274;22763;-83
2023/06/15 03:52:46;;;;;;;;;;;;;;;;;;137453;1274;22341;-80
2023/06/15 03:55:49;;;;;;;;;;;;;;;;;;137396;1274;22351;-81
2023/06/15 03:58:51;;;;;;;;;;;;;;;;;;137409;1274;22418;-80
2023/06/15 04:01:54;;;;;;;;;;;;;;;;;;137430;1259;22331;-80
2023/06/15 04:04:58;;;;;;;;;;;;;;;;;;137444;1274;22806;-80
2023/06/15 04:08:01;;;;;;;;;;;;;;;;;;137467;1274;22334;-81
2023/06/15 04:11:03;;;;;;;;;;;;;;;;;;137482;1274;22355;-82
2023/06/15 04:14:06;;;;;;;;;;;;;;;;;;137440;1274;22816;-81
2023/06/15 04:17:08;;;;;;;;;;;;;;;;;;137429;1274;22987;-80
2023/06/15 04:20:11;;;;;;;;;;;;;;;;;;137457;1274;22864;-81
2023/06/15 04:23:14;;;;;;;;;;;;;;;;;;137414;1270;22276;-81
2023/06/15 04:26:17;;;;;;;;;;;;;;;;;;137433;1274;22301;-82
2023/06/15 04:29:22;;;;;;;;;;;;;;;;;;137433;1274;22273;-81
2023/06/15 04:32:57;;;;;;;;;;;;;;;;;;137466;1274;22885;-81
2023/06/15 04:36:01;;;;;;;;;;;;;;;;;;137447;1274;23058;-81
2023/06/15 04:39:03;;;;;;;;;;;;;;;;;;137476;1274;22352;-80
2023/06/15 04:42:08;;;;;;;;;;;;;;;;;;137390;1274;22339;-81
2023/06/15 04:45:11;;;;;;;;;;;;;;;;;;137452;1274;22808;-81
2023/06/15 04:48:14;;;;;;;;;;;;;;;;;;137433;1274;22398;-79
2023/06/15 04:51:16;;;;;;;;;;;;;;;;;;137369;1274;22309;-79
2023/06/15 04:54:18;;;;;;;;;;;;;;;;;;137386;1274;22374;-80
2023/06/15 04:57:21;;;;;;;;;;;;;;;;;;137397;1274;22343;-79
2023/06/15 05:00:23;;;;;;;;;;;;;;;;;;137393;1274;22417;-80
2023/06/15 05:03:26;;;;;;;;;;;;;;;;;;137347;1274;22299;-81
2023/06/15 05:06:29;;;;;;;;;;;;;;;;;;137462;1274;22437;-81
2023/06/15 05:09:34;;;;;;;;;;;;;;;;;;137493;1274;22342;-80
2023/06/15 05:12:36;;;;;;;;;;;;;;;;;;137438;1274;22341;-80
2023/06/15 05:15:39;;;;;;;;;;;;;;;;;;137408;1274;23108;-80
2023/06/15 05:18:42;;;;;;;;;;;;;;;;;;137387;1274;22449;-80
2023/06/15 05:21:44;;;;;;;;;;;;;;;;;;137388;1274;22319;-81
2023/06/15 05:24:47;;;;;;;;;;;;;;;;;;137361;1274;23000;-81
2023/06/15 05:27:49;;;;;;;;;;;;;;;;;;137389;1274;22865;-81
2023/06/15 05:30:52;;;;;;;;;;;;;;;;;;137413;1274;23184;-81
2023/06/15 05:33:54;;;;;;;;;;;;;;;;;;137420;1274;23262;-80
2023/06/15 05:36:57;;;;;;;;;;;;;;;;;;137447;1274;22786;-79
2023/06/15 05:39:59;;;;;;;;;;;;;;;;;;137479;1274;22310;-83
2023/06/15 05:43:02;;;;;;;;;;;;;;;;;;137445;1274;23061;-82
2023/06/15 05:46:05;;;;;;;;;;;;;;;;;;137429;1274;22341;-81
2023/06/15 05:49:07;;;;;;;;;;;;;;;;;;137431;1274;22417;-82
2023/06/15 05:52:09;;;;;;;;;;;;;;;;;;137444;1267;22402;-82
2023/06/15 05:55:12;;;;;;;;;;;;;;;;;;137427;1274;22280;-83
2023/06/15 05:58:15;;;;;;;;;;;;;;;;;;137439;1274;22506;-85
2023/06/15 06:01:17;;;;;;;;;;;;;;;;;;137420;1274;22752;-84
2023/06/15 06:04:20;;;;;;;;;;;;;;;;;;137440;1274;22266;-84
2023/06/15 06:07:22;;;;;;;;;;;;;;;;;;137351;1274;22511;-82
2023/06/15 06:10:25;;;;;;;;;;;;;;;;;;137313;1274;22557;-83
2023/06/15 06:13:27;;;;;;;;;;;;;;;;;;137455;1274;22283;-82
2023/06/15 06:16:30;;;;;;;;;;;;;;;;;;137478;1274;22338;-79
2023/06/15 06:19:32;;;;;;;;;;;;;;;;;;137328;1274;22530;-81
2023/06/15 06:22:35;;;;;;;;;;;;;;;;;;137603;1274;22454;-81
2023/06/15 06:25:38;;;;;;;;;;;;;;;;;;137621;1274;22344;-81
2023/06/15 06:28:41;;;;;;;;;;;;;;;;;;137610;1274;22349;-80
2023/06/15 06:31:43;;;;;;;;;;;;;;;;;;137605;1274;22374;-81
2023/06/15 06:34:46;;;;;;;;;;;;;;;;;;137654;1274;22350;-79
2023/06/15 06:37:49;;;;;;;;;;;;;;;;;;137643;1274;22411;-78
2023/06/15 06:40:53;;;;;;;;;;;;;;;;;;137582;1274;22324;-79
2023/06/15 06:43:56;;;;;;;;;;;;;;;;;;137440;1274;22798;-80
2023/06/15 06:47:01;;;;;;;;;;;;;;;;;;137433;1274;22475;-80
2023/06/15 06:50:05;;;;;;;;;;;;;;;;;;137439;1274;22310;-81
2023/06/15 06:53:07;;;;;;;;;;;;;;;;;;137424;1274;22286;-80
2023/06/15 06:56:10;;;;;;;;;;;;;;;;;;137415;1274;22328;-80
2023/06/15 06:59:12;;;;;;;;;;;;;;;;;;137430;1274;22361;-80
2023/06/15 07:02:15;;;;;;;;;;;;;;;;;;137440;1274;22381;-83
2023/06/15 07:05:18;;;;;;;;;;;;;;;;;;137381;1274;22370;-79
2023/06/15 07:08:21;;;;;;;;;;;;;;;;;;137484;1274;22328;-80
2023/06/15 07:11:24;;;;;;;;;;;;;;;;;;137389;1274;23120;-81
2023/06/15 07:14:26;;;;;;;;;;;;;;;;;;137422;1274;22318;-81
2023/06/15 07:17:29;;;;;;;;;;;;;;;;;;137426;1274;22371;-81
2023/06/15 07:20:31;;;;;;;;;;;;;;;;;;137391;1274;22441;-79
2023/06/15 07:23:34;;;;;;;;;;;;;;;;;;137362;1274;22799;-80
2023/06/15 07:26:36;;;;;;;;;;;;;;;;;;137451;1274;22324;-78
2023/06/15 07:29:39;;;;;;;;;;;;;;;;;;137397;1274;22397;-80
2023/06/15 07:32:41;;;;;;;;;;;;;;;;;;137383;1274;22412;-80
2023/06/15 07:35:44;;;;;;;;;;;;;;;;;;137375;1263;22350;-79
2023/06/15 07:38:46;;;;;;;;;;;;;;;;;;137419;1274;22530;-78
2023/06/15 07:41:49;;;;;;;;;;;;;;;;;;137462;1274;22333;-81
2023/06/15 07:44:51;;;;;;;;;;;;;;;;;;137444;1274;22312;-81
2023/06/15 07:47:54;;;;;;;;;;;;;;;;;;137447;1274;23106;-82
2023/06/15 07:50:56;;;;;;;;;;;;;;;;;;137428;1274;22318;-78
2023/06/15 07:53:59;;;;;;;;;;;;;;;;;;137409;1265;22396;-80
2023/06/15 07:57:02;;;;;;;;;;;;;;;;;;137424;1274;22335;-80
2023/06/15 08:00:05;;;;;;;;;;;;;;;;;;137431;1274;22313;-80
2023/06/15 08:03:07;;;;;;;;;;;;;;;;;;137374;1274;22817;-79
2023/06/15 08:06:11;;;;;;;;;;;;;;;;;;137415;1274;22350;-81
2023/06/15 08:09:13;;;;;;;;;;;;;;;;;;137406;1274;22844;-81
2023/06/15 08:12:19;;;;;;;;;;;;;;;;;;137386;1273;22319;-81
2023/06/15 08:15:21;;;;;;;;;;;;;;;;;;137401;1274;22329;-81
2023/06/15 08:18:25;;;;;;;;;;;;;;;;;;137491;1274;22395;-82
2023/06/15 08:21:28;;;;;;;;;;;;;;;;;;137396;1274;22706;-81
2023/06/15 08:24:31;;;;;;;;;;;;;;;;;;137399;1274;22346;-81
2023/06/15 08:27:33;;;;;;;;;;;;;;;;;;137408;1274;22332;-81
2023/06/15 08:30:36;;;;;;;;;;;;;;;;;;137484;1274;22849;-82
2023/06/15 08:33:40;;;;;;;;;;;;;;;;;;137308;1274;22375;-81
2023/06/15 08:36:42;;;;;;;;;;;;;;;;;;137421;1274;22383;-81
2023/06/15 08:39:45;;;;;;;;;;;;;;;;;;137395;1274;22997;-81
2023/06/15 08:42:47;;;;;;;;;;;;;;;;;;137399;1274;22521;-82
2023/06/15 08:45:50;;;;;;;;;;;;;;;;;;137421;1274;22329;-81
2023/06/15 08:48:54;;;;;;;;;;;;;;;;;;137414;1274;22378;-82
2023/06/15 08:51:56;;;;;;;;;;;;;;;;;;137386;1274;22495;-81
2023/06/15 08:54:59;;;;;;;;;;;;;;;;;;137395;1274;22325;-81
2023/06/15 08:58:01;;;;;;;;;;;;;;;;;;136737;1269;22536;-80
2023/06/15 09:01:05;;;;;;;;;;;;;;;;;;137348;1274;22495;-81
2023/06/15 09:04:07;;;;;;;;;;;;;;;;;;137370;1274;22339;-81
2023/06/15 09:07:10;;;;;;;;;;;;;;;;;;137431;1274;22715;-80
2023/06/15 09:10:12;;;;;;;;;;;;;;;;;;137427;1274;22333;-81
2023/06/15 09:13:15;;;;;;;;;;;;;;;;;;137390;1267;22315;-82
2023/06/15 09:16:17;;;;;;;;;;;;;;;;;;137420;1274;22405;-83
2023/06/15 09:19:20;;;;;;;;;;;;;;;;;;137473;1274;22916;-83
2023/06/15 09:22:22;;;;;;;;;;;;;;;;;;137357;1274;22545;-81
2023/06/15 09:25:25;;;;;;;;;;;;;;;;;;137385;1274;22530;-81
2023/06/15 09:28:28;;;;;;;;;;;;;;;;;;137455;1274;22336;-82
2023/06/15 09:31:30;;;;;;;;;;;;;;;;;;137484;1274;22829;-80
2023/06/15 09:34:33;;;;;;;;;;;;;;;;;;137472;1274;22424;-80
2023/06/15 09:37:37;;;;;;;;;;;;;;;;;;137407;1274;22521;-82
2023/06/15 09:40:39;;;;;;;;;;;;;;;;;;137440;1271;23136;-81
2023/06/15 09:43:44;;;;;;;;;;;;;;;;;;137426;1274;22692;-81
2023/06/15 09:46:47;;;;;;;;;;;;;;;;;;137402;1274;22521;-82
2023/06/15 09:49:49;;;;;;;;;;;;;;;;;;137445;1274;22384;-81
2023/06/15 09:52:52;;;;;;;;;;;;;;;;;;137437;1274;22330;-81
2023/06/15 09:55:54;;;;;;;;;;;;;;;;;;137359;1274;22523;-81
2023/06/15 09:59:02;;;;;;;;;;;;;;;;;;137311;1274;22535;-79
2023/06/15 10:02:04;;;;;;;;;;;;;;;;;;137449;1274;22349;-82
2023/06/15 10:05:07;;;;;;;;;;;;;;;;;;137480;1274;22952;-81
2023/06/15 10:08:11;;;;;;;;;;;;;;;;;;137347;1274;23023;-81
2023/06/15 10:11:13;;;;;;;;;;;;;;;;;;137505;1274;22605;-82
2023/06/15 10:14:16;;;;;;;;;;;;;;;;;;137421;1274;22517;-81
2023/06/15 10:17:18;;;;;;;;;;;;;;;;;;137502;1259;22546;-82
2023/06/15 10:20:21;;;;;;;;;;;;;;;;;;137402;1274;22485;-82
2023/06/15 10:23:24;;;;;;;;;;;;;;;;;;137454;1274;22248;-80
2023/06/15 10:26:26;;;;;;;;;;;;;;;;;;137367;1274;22996;-80
2023/06/15 10:29:29;;;;;;;;;;;;;;;;;;137668;1270;23031;-80
2023/06/15 10:32:32;;;;;;;;;;;;;;;;;;137663;1274;22313;-81
2023/06/15 10:35:34;;;;;;;;;;;;;;;;;;137456;1274;22581;-81
2023/06/15 10:38:38;;;;;;;;;;;;;;;;;;137671;1274;22298;-81
2023/06/15 10:41:42;;;;;;;;;;;;;;;;;;137680;1274;22236;-82
2023/06/15 10:44:45;;;;;;;;;;;;;;;;;;137562;1274;22353;-82
2023/06/15 10:47:47;;;;;;;;;;;;;;;;;;137542;1274;22945;-81
2023/06/15 10:50:51;;;;;;;;;;;;;;;;;;137485;1274;22507;-81
2023/06/15 10:53:54;;;;;;;;;;;;;;;;;;137470;1274;22505;-81
2023/06/15 10:56:57;;;;;;;;;;;;;;;;;;137190;1270;22524;-82
2023/06/15 11:00:00;;;;;;;;;;;;;;;;;;137392;1274;22589;-82
2023/06/15 11:03:02;;;;;;;;;;;;;;;;;;137384;1274;22559;-82
2023/06/15 11:06:06;;;;;;;;;;;;;;;;;;137303;1274;22318;-78
2023/06/15 11:09:08;;;;;;;;;;;;;;;;;;137423;1274;22958;-81
2023/06/15 11:12:11;;;;;;;;;;;;;;;;;;137389;1274;22354;-82
2023/06/15 11:15:13;;;;;;;;;;;;;;;;;;137498;1274;22339;-83
2023/06/15 11:18:17;;;;;;;;;;;;;;;;;;137486;1274;22898;-82
2023/06/15 11:21:20;;;;;;;;;;;;;;;;;;137441;1268;22919;-80
2023/06/15 11:24:22;;;;;;;;;;;;;;;;;;137450;1269;22344;-82
2023/06/15 11:27:25;;;;;;;;;;;;;;;;;;137472;1274;22388;-83
2023/06/15 11:30:27;;;;;;;;;;;;;;;;;;137473;1274;22381;-82
2023/06/15 11:33:30;;;;;;;;;;;;;;;;;;137384;1274;22340;-80
2023/06/15 11:36:33;;;;;;;;;;;;;;;;;;137405;1274;22368;-83
2023/06/15 11:42:57;;;;;;;;;;;;;;;;;;137408;1274;22464;-84
2023/06/15 11:45:59;;;;;;;;;;;;;;;;;;137496;1274;22473;-81
2023/06/15 11:49:02;;;;;;;;;;;;;;;;;;137519;1274;22378;-83
2023/06/15 11:52:04;;;;;;;;;;;;;;;;;;137514;1274;22397;-82
2023/06/15 11:55:07;;;;;;;;;;;;;;;;;;137451;1274;23047;-83
2023/06/15 11:58:09;;;;;;;;;;;;;;;;;;137443;1270;22772;-79
2023/06/15 12:01:12;;;;;;;;;;;;;;;;;;137449;1274;22327;-82
2023/06/15 12:04:15;;;;;;;;;;;;;;;;;;137398;1274;22897;-83
2023/06/15 12:07:18;;;;;;;;;;;;;;;;;;137447;1274;22331;-83
2023/06/15 12:10:21;;;;;;;;;;;;;;;;;;137427;1274;22323;-84
2023/06/15 12:13:26;;;;;;;;;;;;;;;;;;137469;1274;22275;-83
2023/06/15 12:16:29;;;;;;;;;;;;;;;;;;137459;1274;22432;-81
2023/06/15 12:19:31;;;;;;;;;;;;;;;;;;137353;1270;23623;-82
2023/06/15 12:22:37;;;;;;;;;;;;;;;;;;137378;1274;22269;-82
2023/06/15 12:25:40;;;;;;;;;;;;;;;;;;137372;1274;22399;-82
2023/06/15 12:28:42;;;;;;;;;;;;;;;;;;137400;1273;22273;-81
2023/06/15 12:31:45;;;;;;;;;;;;;;;;;;137318;1274;22797;-83
2023/06/15 12:34:48;;;;;;;;;;;;;;;;;;137325;1274;22779;-82
2023/06/15 12:37:50;;;;;;;;;;;;;;;;;;137283;1274;23247;-81
2023/06/15 12:40:53;;;;;;;;;;;;;;;;;;137368;1265;22322;-82
2023/06/15 12:43:56;;;;;;;;;;;;;;;;;;137392;1274;22289;-81
2023/06/15 12:46:58;;;;;;;;;;;;;;;;;;137444;1274;22527;-84
2023/06/15 12:50:01;;;;;;;;;;;;;;;;;;137461;1274;22283;-81
2023/06/15 12:53:03;;;;;;;;;;;;;;;;;;137419;1274;22286;-82
2023/06/15 12:56:06;;;;;;;;;;;;;;;;;;137422;1274;22388;-82
2023/06/15 12:59:09;;;;;;;;;;;;;;;;;;137452;1274;22433;-82
2023/06/15 13:02:12;;;;;;;;;;;;;;;;;;137425;1274;22654;-81
2023/06/15 13:05:14;;;;;;;;;;;;;;;;;;137421;1274;23318;-81
2023/06/15 13:08:17;;;;;;;;;;;;;;;;;;137367;1274;22968;-82
2023/06/15 13:11:19;;;;;;;;;;;;;;;;;;137241;1274;22583;-82
2023/06/15 13:14:22;;;;;;;;;;;;;;;;;;137402;1274;22413;-81
2023/06/15 13:17:24;;;;;;;;;;;;;;;;;;137457;1274;22378;-79
2023/06/15 13:20:27;;;;;;;;;;;;;;;;;;137304;1271;22491;-81
2023/06/15 13:23:30;;;;;;;;;;;;;;;;;;137346;1274;22275;-81
2023/06/15 13:26:32;;;;;;;;;;;;;;;;;;137392;1274;22416;-82
2023/06/15 13:29:34;;;;;;;;;;;;;;;;;;137378;1274;22524;-82
2023/06/15 13:32:37;;;;;;;;;;;;;;;;;;137431;1274;22302;-83
2023/06/15 13:35:40;;;;;;;;;;;;;;;;;;137436;1274;22391;-84
2023/06/15 13:38:43;;;;;;;;;;;;;;;;;;137465;1274;22374;-83
2023/06/15 13:41:46;;;;;;;;;;;;;;;;;;137430;1274;22268;-83
2023/06/15 13:44:48;;;;;;;;;;;;;;;;;;137529;1274;22304;-83
2023/06/15 13:47:51;;;;;;;;;;;;;;;;;;137507;1274;22264;-81
2023/06/15 13:50:54;;;;;;;;;;;;;;;;;;137510;1269;22221;-82
2023/06/15 13:53:56;;;;;;;;;;;;;;;;;;137528;1274;22166;-83
2023/06/15 13:56:59;;;;;;;;;;;;;;;;;;137546;1274;22199;-82
2023/06/15 14:00:01;;;;;;;;;;;;;;;;;;137499;1274;22428;-81
2023/06/15 14:03:05;;;;;;;;;;;;;;;;;;137489;1274;22189;-79
2023/06/15 14:06:08;;;;;;;;;;;;;;;;;;137468;1274;22221;-81
2023/06/15 14:09:10;;;;;;;;;;;;;;;;;;137477;1274;22158;-81
2023/06/15 14:12:13;;;;;;;;;;;;;;;;;;137410;1274;22246;-83
2023/06/15 14:15:17;;;;;;;;;;;;;;;;;;137517;1274;22785;-83
2023/06/15 14:18:21;;;;;;;;;;;;;;;;;;137513;1274;22185;-83
2023/06/15 14:21:24;;;;;;;;;;;;;;;;;;137527;1274;22498;-83
2023/06/15 14:24:26;;;;;;;;;;;;;;;;;;137550;1262;22519;-82
2023/06/15 14:27:29;;;;;;;;;;;;;;;;;;137442;1274;22284;-83
2023/06/15 14:30:31;;;;;;;;;;;;;;;;;;137539;1274;22536;-83
2023/06/15 14:33:34;;;;;;;;;;;;;;;;;;137301;1274;333617;-83
2023/06/15 14:36:36;;;;;;;;;;;;;;;;;;137536;1274;22168;-83
2023/06/15 14:39:39;;;;;;;;;;;;;;;;;;137501;1274;22616;-83
2023/06/15 14:42:41;;;;;;;;;;;;;;;;;;137527;1274;22273;-83
2023/06/15 14:45:44;;;;;;;;;;;;;;;;;;137626;1274;22347;-82
2023/06/15 14:48:47;;;;;;;;;;;;;;;;;;137545;1271;22249;-82
2023/06/15 14:51:50;;;;;;;;;;;;;;;;;;137615;1274;22642;-82
2023/06/15 14:54:53;;;;;;;;;;;;;;;;;;137532;1274;22286;-83
2023/06/15 14:57:55;;;;;;;;;;;;;;;;;;137580;1274;22392;-84
2023/06/15 15:00:58;;;;;;;;;;;;;;;;;;137513;1274;22247;-82
2023/06/15 15:04:00;;;;;;;;;;;;;;;;;;137605;1274;22197;-83
2023/06/15 15:07:03;;;;;;;;;;;;;;;;;;137571;1274;22259;-86
2023/06/15 15:10:05;;;;;;;;;;;;;;;;;;137517;1274;22323;-73
2023/06/15 15:13:08;;;;;;;;;;;;;;;;;;137556;1274;22427;-82
2023/06/15 15:16:10;;;;;;;;;;;;;;;;;;137534;1274;22246;-83
2023/06/15 15:19:13;;;;;;;;;;;;;;;;;;137532;1274;22395;-83
2023/06/15 15:22:15;;;;;;;;;;;;;;;;;;137705;1274;22118;-81
2023/06/15 15:25:18;;;;;;;;;;;;;;;;;;137602;1275;22470;-81
2023/06/15 15:28:20;;;;;;;;;;;;;;;;;;137544;1276;22551;-82
2023/06/15 15:35:13;;;;;;;;;;;;;;;;;;133212;1311;544122;-80
2023/06/15 15:38:14;;;;;;;;;;;;;;;;;;136490;1286;22605;-82
2023/06/15 15:41:16;;;;;;;;;;;;;;;;;;136514;1286;22611;-83
2023/06/15 15:44:17;;;;;;;;;;;;;;;;;;136463;1286;22480;-79
2023/06/15 15:47:18;;;;;;;;;;;;;;;;;;136334;1284;174538;-80
2023/06/15 15:50:19;;;;;;;;;;;;;;;;;;136340;1284;22544;-80
2023/06/15 15:53:20;;;;;;;;;;;;;;;;;;136584;1284;22489;-80
2023/06/15 15:56:21;;;;;;;;;;;;;;;;;;136385;1272;22601;-80
2023/06/15 15:59:23;;;;;;;;;;;;;;;;;;136295;1284;23030;-81
2023/06/15 16:02:25;;;;;;;;;;;;;;;;;;136398;1284;22566;-80
2023/06/15 16:05:26;;;;;;;;;;;;;;;;;;136386;1284;22622;-80
2023/06/15 16:08:27;;;;;;;;;;;;;;;;;;135734;1284;22584;-81
2023/06/15 16:11:28;;;;;;;;;;;;;;;;;;136276;1284;22547;-82
2023/06/15 16:14:30;;;;;;;;;;;;;;;;;;136281;1284;22514;-81
2023/06/15 16:17:31;;;;;;;;;;;;;;;;;;136150;1284;22559;-82
2023/06/15 16:20:33;;;;;;;;;;;;;;;;;;136533;1283;22484;-77
2023/06/15 16:23:34;;;;;;;;;;;;;;;;;;136612;1284;22355;-76
2023/06/15 16:26:35;;;;;;;;;;;;;;;;;;135901;1284;22555;-81
2023/06/15 16:29:36;;;;;;;;;;;;;;;;;;136495;1284;22690;-80
2023/06/15 16:32:37;;;;;;;;;;;;;;;;;;136618;1284;22431;-81
2023/06/15 16:35:38;;;;;;;;;;;;;;;;;;136594;1284;22804;-81
2023/06/15 16:38:39;;;;;;;;;;;;;;;;;;136371;1284;22594;-81
2023/06/15 16:41:40;;;;;;;;;;;;;;;;;;136575;1284;22661;-83
2023/06/15 16:44:41;;;;;;;;;;;;;;;;;;136108;1284;22580;-80
2023/06/15 16:47:43;;;;;;;;;;;;;;;;;;136619;1284;22332;-81
2023/06/15 16:50:44;;;;;;;;;;;;;;;;;;136607;1284;22324;-81
2023/06/15 16:53:45;;;;;;;;;;;;;;;;;;136302;1284;22533;-81
2023/06/15 16:56:46;;;;;;;;;;;;;;;;;;136121;1282;22515;-81
2023/06/15 16:59:48;;;;;;;;;;;;;;;;;;136938;1276;22719;-80
2023/06/15 17:02:49;;;;;;;;;;;;;;;;;;137186;1276;22544;-81
2023/06/15 17:05:50;;;;;;;;;;;;;;;;;;137079;1269;22603;-83
2023/06/15 17:08:51;;;;;;;;;;;;;;;;;;136820;1276;22913;-81
2023/06/15 17:11:52;;;;;;;;;;;;;;;;;;137365;1276;22344;-82
2023/06/15 17:14:54;;;;;;;;;;;;;;;;;;136534;1276;22538;-83
2023/06/15 17:17:55;;;;;;;;;;;;;;;;;;136878;1276;22532;-84
2023/06/15 17:20:56;;;;;;;;;;;;;;;;;;137304;1276;22686;-83
2023/06/15 17:23:57;;;;;;;;;;;;;;;;;;136791;1276;23014;-82
2023/06/15 17:26:58;;;;;;;;;;;;;;;;;;136817;1276;22508;-83
2023/06/15 17:29:59;;;;;;;;;;;;;;;;;;137308;1276;22352;-82
2023/06/15 17:33:00;;;;;;;;;;;;;;;;;;136998;1276;22498;-83
2023/06/15 17:36:01;;;;;;;;;;;;;;;;;;136833;1276;22516;-83
2023/06/15 17:39:02;;;;;;;;;;;;;;;;;;137333;1276;22263;-82
2023/06/15 17:42:04;;;;;;;;;;;;;;;;;;137050;1276;22505;-83
2023/06/15 17:45:05;;;;;;;;;;;;;;;;;;136768;1276;23081;-83
2023/06/15 17:48:06;;;;;;;;;;;;;;;;;;136944;1276;25259;-83
2023/06/15 17:51:10;;;;;;;;;;;;;;;;;;137131;1276;22654;-83
2023/06/15 17:54:14;;;;;;;;;;;;;;;;;;136742;1276;22538;-84
2023/06/15 17:57:15;;;;;;;;;;;;;;;;;;136863;1276;22986;-82
2023/06/15 18:00:17;;;;;;;;;;;;;;;;;;137254;1276;22513;-83
2023/06/15 18:03:18;;;;;;;;;;;;;;;;;;136778;1276;22557;-83
2023/06/15 18:06:19;;;;;;;;;;;;;;;;;;136732;1276;22581;-83
2023/06/15 18:09:22;;;;;;;;;;;;;;;;;;137135;1274;22513;-84
2023/06/15 18:12:23;;;;;;;;;;;;;;;;;;136673;1276;22531;-83
2023/06/15 18:15:24;;;;;;;;;;;;;;;;;;136800;1272;22554;-83
2023/06/15 18:18:25;;;;;;;;;;;;;;;;;;137321;1276;22340;-83
2023/06/15 18:21:26;;;;;;;;;;;;;;;;;;137305;1276;22342;-83
2023/06/15 18:24:27;;;;;;;;;;;;;;;;;;136790;1276;22508;-82
2023/06/15 18:27:31;;;;;;;;;;;;;;;;;;137135;1276;25239;-82
2023/06/15 18:30:32;;;;;;;;;;;;;;;;;;136885;1273;22588;-82
2023/06/15 18:33:33;;;;;;;;;;;;;;;;;;136696;1276;22501;-82
2023/06/15 18:36:35;;;;;;;;;;;;;;;;;;136860;1266;22895;-82
2023/06/15 18:39:36;;;;;;;;;;;;;;;;;;137089;1276;22567;-82
2023/06/15 18:42:37;;;;;;;;;;;;;;;;;;136542;1276;23192;-82
2023/06/15 18:45:38;;;;;;;;;;;;;;;;;;136886;1263;25002;-82
2023/06/15 18:48:39;;;;;;;;;;;;;;;;;;137317;1276;22359;-83
2023/06/15 18:51:40;;;;;;;;;;;;;;;;;;137344;1276;22305;-82
2023/06/15 18:54:42;;;;;;;;;;;;;;;;;;136840;1273;23474;-82
2023/06/15 18:57:43;;;;;;;;;;;;;;;;;;137259;1276;22523;-83
2023/06/15 19:00:47;;;;;;;;;;;;;;;;;;136712;1276;22514;-83
2023/06/15 19:03:48;;;;;;;;;;;;;;;;;;136693;1276;22600;-82
2023/06/15 19:06:49;;;;;;;;;;;;;;;;;;137127;1276;22546;-83
2023/06/15 19:09:50;;;;;;;;;;;;;;;;;;136935;1276;22978;-83
2023/06/15 19:12:51;;;;;;;;;;;;;;;;;;136711;1269;22550;-82
2023/06/15 19:15:52;;;;;;;;;;;;;;;;;;136916;1276;22510;-83
2023/06/15 19:18:53;;;;;;;;;;;;;;;;;;137047;1276;22503;-82
2023/06/15 19:21:57;;;;;;;;;;;;;;;;;;136703;1272;22529;-82
2023/06/15 19:24:58;;;;;;;;;;;;;;;;;;137356;1276;22335;-83
2023/06/15 19:27:59;;;;;;;;;;;;;;;;;;137339;1276;22391;-84
2023/06/15 19:31:01;;;;;;;;;;;;;;;;;;137240;1276;22542;-83
2023/06/15 19:34:05;;;;;;;;;;;;;;;;;;137339;1276;22400;-83
2023/06/15 19:37:06;;;;;;;;;;;;;;;;;;137329;1276;22358;-83
2023/06/15 19:40:07;;;;;;;;;;;;;;;;;;137327;1276;22357;-83
2023/06/15 19:43:08;;;;;;;;;;;;;;;;;;136782;1276;22574;-81
2023/06/15 19:46:09;;;;;;;;;;;;;;;;;;137312;1276;22290;-83
2023/06/15 19:49:10;;;;;;;;;;;;;;;;;;137224;1276;22581;-83
2023/06/15 19:52:11;;;;;;;;;;;;;;;;;;137026;1276;23473;-83
2023/06/15 19:55:12;;;;;;;;;;;;;;;;;;137302;1269;22318;-84
2023/06/15 19:58:13;;;;;;;;;;;;;;;;;;137101;1276;22526;-83
2023/06/15 20:01:14;;;;;;;;;;;;;;;;;;136833;1269;22506;-84
2023/06/15 20:04:15;;;;;;;;;;;;;;;;;;136962;1276;22520;-84
2023/06/15 20:07:16;;;;;;;;;;;;;;;;;;137108;1276;22556;-83
2023/06/15 20:10:18;;;;;;;;;;;;;;;;;;136810;1276;22517;-83
2023/06/15 20:13:19;;;;;;;;;;;;;;;;;;136897;1276;22546;-83
2023/06/15 20:16:20;;;;;;;;;;;;;;;;;;137171;1276;22535;-82
2023/06/15 20:19:21;;;;;;;;;;;;;;;;;;136893;1276;22629;-83
2023/06/15 20:22:22;;;;;;;;;;;;;;;;;;137302;1276;22282;-82
2023/06/15 20:25:23;;;;;;;;;;;;;;;;;;137318;1276;22329;-82
2023/06/15 20:28:25;;;;;;;;;;;;;;;;;;137371;1276;22641;-82
2023/06/15 20:31:27;;;;;;;;;;;;;;;;;;137326;1276;22325;-81